Time;durP1;ratioP1;P1;durP2;ratioP2;P2;SDS_P1;SDS_P2;PMS_P1;PMS_P2;Temp;Humidity;BMP_temperature;BMP_pressure;BME280_temperature;BME280_humidity;BME280_pressure;Samples;Min_cycle;Max_cycle;Signal;HPM_P1;HPM_P2
2022/03/01 00:01:58;;;;;;;17.98;9.55;;;3.10;98.30;;;;;;4994681;28;20052;-41
2022/03/01 00:04:23;;;;;;;20.67;10.32;;;3.10;98.40;;;;;;4994553;28;20026;-42
2022/03/01 00:06:49;;;;;;;17.83;10.20;;;3.10;98.70;;;;;;4994639;28;20080;-45
2022/03/01 00:09:15;;;;;;;18.30;9.85;;;3.10;99.00;;;;;;4994580;28;20027;-41
2022/03/01 00:11:40;;;;;;;19.45;10.18;;;3.00;99.10;;;;;;4993344;28;20036;-44
2022/03/01 00:14:06;;;;;;;21.23;10.23;;;3.00;99.20;;;;;;4994317;28;20031;-40
2022/03/01 00:16:32;;;;;;;19.35;10.73;;;3.00;99.30;;;;;;4994386;28;20041;-42
2022/03/01 00:18:58;;;;;;;15.50;10.90;;;2.90;99.50;;;;;;5007215;23;20042;-43
2022/03/01 00:21:25;;;;;;;14.05;9.75;;;2.80;99.70;;;;;;4994555;28;20128;-43
2022/03/01 00:23:51;;;;;;;17.50;10.68;;;2.80;99.80;;;;;;4994303;28;20030;-46
2022/03/01 00:26:16;;;;;;;16.92;11.40;;;2.80;99.90;;;;;;4993406;28;20033;-39
2022/03/01 00:28:43;;;;;;;16.40;10.05;;;2.70;99.90;;;;;;4993033;28;20117;-44
2022/03/01 00:31:08;;;;;;;19.23;11.23;;;2.70;99.90;;;;;;4994460;28;20393;-46
2022/03/01 00:33:34;;;;;;;15.75;10.27;;;2.70;99.90;;;;;;4994010;28;20027;-43
2022/03/01 00:36:00;;;;;;;19.10;10.85;;;2.60;99.90;;;;;;4994505;28;20033;-41
2022/03/01 00:38:26;;;;;;;19.60;11.13;;;2.60;99.90;;;;;;4993678;28;20457;-43
2022/03/01 00:40:51;;;;;;;15.43;10.38;;;2.60;99.90;;;;;;4994315;28;20030;-44
2022/03/01 00:43:17;;;;;;;19.55;11.70;;;2.60;99.90;;;;;;4993604;28;20030;-44
2022/03/01 00:45:43;;;;;;;17.10;10.40;;;2.60;99.90;;;;;;4993832;28;20538;-45
2022/03/01 00:48:08;;;;;;;18.38;11.15;;;2.60;99.90;;;;;;4993838;28;20022;-41
2022/03/01 00:50:34;;;;;;;18.67;11.23;;;2.70;99.90;;;;;;4993693;28;20106;-44
2022/03/01 00:52:59;;;;;;;16.13;11.43;;;2.70;99.90;;;;;;4993451;28;20109;-45
2022/03/01 00:55:25;;;;;;;18.63;10.70;;;2.60;99.90;;;;;;4993741;28;20026;-42
2022/03/01 00:57:50;;;;;;;13.90;10.38;;;2.60;99.90;;;;;;4993340;28;20541;-39
2022/03/01 01:00:16;;;;;;;21.92;12.35;;;2.60;99.90;;;;;;4993578;28;20556;-42
2022/03/01 01:02:42;;;;;;;15.57;10.63;;;2.50;99.90;;;;;;4995631;28;20087;-44
2022/03/01 01:05:08;;;;;;;18.45;11.73;;;2.50;99.90;;;;;;4996477;28;20026;-43
2022/03/01 01:07:34;;;;;;;19.80;11.10;;;2.40;99.90;;;;;;4993656;28;20057;-43
2022/03/01 01:09:59;;;;;;;21.10;12.27;;;2.40;99.90;;;;;;4994366;28;20457;-42
2022/03/01 01:12:25;;;;;;;17.92;10.55;;;2.40;99.90;;;;;;4994834;28;20045;-43
2022/03/01 01:14:51;;;;;;;16.30;11.18;;;2.30;99.90;;;;;;4995914;28;20037;-42
2022/03/01 01:17:16;;;;;;;16.70;11.23;;;2.30;99.90;;;;;;4996934;28;20029;-43
2022/03/01 01:19:42;;;;;;;20.00;11.38;;;2.30;99.90;;;;;;4993298;28;20042;-45
2022/03/01 01:24:51;;;;;;;20.08;10.80;;;2.30;99.90;;;;;;4993092;28;20095;-45
2022/03/01 01:27:17;;;;;;;15.70;11.60;;;2.30;99.90;;;;;;4992100;28;20022;-37
2022/03/01 01:29:43;;;;;;;18.23;11.25;;;2.20;99.90;;;;;;4992848;28;20033;-43
2022/03/01 01:32:08;;;;;;;14.23;9.95;;;2.20;99.90;;;;;;4992982;28;20152;-42
2022/03/01 01:34:34;;;;;;;20.30;11.43;;;2.20;99.90;;;;;;4992696;28;20084;-42
2022/03/01 01:36:59;;;;;;;19.17;10.93;;;2.20;99.90;;;;;;4992919;28;20105;-43
2022/03/01 01:39:25;;;;;;;18.08;10.98;;;2.20;99.90;;;;;;4992478;28;20100;-38
2022/03/01 01:41:50;;;;;;;20.83;10.20;;;2.20;99.90;;;;;;4992636;28;20105;-44
2022/03/01 01:44:16;;;;;;;16.85;9.75;;;2.20;99.90;;;;;;4991405;28;20022;-44
2022/03/01 01:46:42;;;;;;;27.70;11.82;;;2.30;99.90;;;;;;4993067;28;20501;-42
2022/03/01 01:49:07;;;;;;;19.70;9.93;;;2.20;99.90;;;;;;4992827;28;20034;-40
2022/03/01 01:51:33;;;;;;;17.65;10.93;;;2.30;99.90;;;;;;4992535;28;20042;-38
2022/03/01 01:53:58;;;;;;;17.02;10.68;;;2.30;99.90;;;;;;4992398;28;20101;-43
2022/03/01 01:56:24;;;;;;;16.33;9.77;;;2.30;99.90;;;;;;4992762;28;20105;-45
2022/03/01 01:58:50;;;;;;;16.88;10.63;;;2.30;99.90;;;;;;4992191;28;20500;-47
2022/03/01 02:01:15;;;;;;;18.95;10.25;;;2.30;99.90;;;;;;4992541;28;20215;-44
2022/03/01 02:03:41;;;;;;;20.50;11.38;;;2.20;99.90;;;;;;4992719;28;20474;-41
2022/03/01 02:06:07;;;;;;;16.80;10.73;;;2.10;99.90;;;;;;4992686;28;20030;-43
2022/03/01 02:08:34;;;;;;;19.52;10.57;;;2.00;99.90;;;;;;4992697;28;20470;-42
2022/03/01 02:11:00;;;;;;;36.92;13.32;;;2.10;99.90;;;;;;4992679;28;20080;-42
2022/03/01 02:13:26;;;;;;;17.42;11.00;;;2.00;99.90;;;;;;4992293;28;20042;-42
2022/03/01 02:15:52;;;;;;;17.42;10.98;;;1.90;99.90;;;;;;4991366;28;20498;-43
2022/03/01 02:18:18;;;;;;;19.05;11.30;;;1.80;99.90;;;;;;4991105;28;20093;-44
2022/03/01 02:20:44;;;;;;;21.83;11.88;;;1.80;99.90;;;;;;4992384;28;20026;-45
2022/03/01 02:23:09;;;;;;;24.40;12.15;;;1.80;99.90;;;;;;4991985;28;20073;-45
2022/03/01 02:25:36;;;;;;;19.02;11.80;;;1.70;99.90;;;;;;4992301;28;20092;-45
2022/03/01 02:28:01;;;;;;;22.30;11.20;;;1.70;99.90;;;;;;4990879;28;20019;-46
2022/03/01 02:30:27;;;;;;;21.90;12.13;;;1.70;99.90;;;;;;4992299;28;20029;-42
2022/03/01 02:32:52;;;;;;;19.83;12.05;;;1.70;99.90;;;;;;4991961;28;20038;-43
2022/03/01 02:35:19;;;;;;;16.80;11.02;;;1.60;99.90;;;;;;4991990;28;20054;-38
2022/03/01 02:37:45;;;;;;;25.30;11.13;;;1.60;99.90;;;;;;4992068;28;20037;-42
2022/03/01 02:40:11;;;;;;;19.92;11.45;;;1.60;99.90;;;;;;4991950;28;20031;-45
2022/03/01 02:42:38;;;;;;;22.98;12.35;;;1.50;99.90;;;;;;4991958;28;20026;-42
2022/03/01 02:45:09;;;;;;;23.50;11.30;;;1.60;99.90;;;;;;4991756;28;20026;-40
2022/03/01 02:47:35;;;;;;;17.73;11.23;;;1.70;99.90;;;;;;4990838;28;20469;-38
2022/03/01 02:50:01;;;;;;;21.58;10.40;;;1.70;99.90;;;;;;4991827;28;20058;-43
2022/03/01 02:52:26;;;;;;;17.75;11.23;;;1.80;99.90;;;;;;4992020;28;20486;-39
2022/03/01 02:54:52;;;;;;;19.15;10.95;;;1.80;99.90;;;;;;4991824;28;20500;-42
2022/03/01 02:57:18;;;;;;;19.63;10.93;;;1.70;99.90;;;;;;4991953;28;20034;-37
2022/03/01 02:59:45;;;;;;;22.10;10.75;;;1.80;99.90;;;;;;4991335;28;20418;-42
2022/03/01 03:02:12;;;;;;;21.38;10.88;;;1.80;99.90;;;;;;4994184;28;20026;-44
2022/03/01 03:04:38;;;;;;;20.90;12.30;;;1.80;99.90;;;;;;4995400;28;20129;-38
2022/03/01 03:07:04;;;;;;;18.95;11.07;;;1.90;99.90;;;;;;4995871;28;20018;-44
2022/03/01 03:09:30;;;;;;;20.65;11.45;;;1.80;99.90;;;;;;4995618;28;20049;-45
2022/03/01 03:11:56;;;;;;;24.10;10.95;;;1.80;99.90;;;;;;4995577;28;20406;-44
2022/03/01 03:14:22;;;;;;;23.80;11.45;;;1.80;99.90;;;;;;4995220;28;20027;-43
2022/03/01 03:16:47;;;;;;;21.95;11.02;;;1.80;99.90;;;;;;4995509;28;20043;-38
2022/03/01 03:19:15;;;;;;;20.58;10.45;;;1.70;99.90;;;;;;4995121;28;20066;-41
2022/03/01 03:21:42;;;;;;;16.73;10.27;;;1.60;99.90;;;;;;4995312;28;20034;-42
2022/03/01 03:24:08;;;;;;;24.38;13.00;;;1.50;99.90;;;;;;4993763;28;20088;-44
2022/03/01 03:26:33;;;;;;;17.45;10.75;;;1.40;99.90;;;;;;4995381;28;20023;-44
2022/03/01 03:28:59;;;;;;;19.23;10.88;;;1.50;99.90;;;;;;4994918;28;20363;-42
2022/03/01 03:31:24;;;;;;;21.17;11.13;;;1.50;99.90;;;;;;4995111;28;20038;-45
2022/03/01 03:33:50;;;;;;;21.02;11.65;;;1.40;99.90;;;;;;4995093;28;20023;-44
2022/03/01 03:36:15;;;;;;;19.88;10.98;;;1.50;99.90;;;;;;4995242;28;20490;-43
2022/03/01 03:38:41;;;;;;;18.00;10.63;;;1.50;99.90;;;;;;4995021;28;20026;-38
2022/03/01 03:41:06;;;;;;;19.67;10.73;;;1.50;99.90;;;;;;4995106;28;20045;-42
2022/03/01 03:43:32;;;;;;;22.65;12.18;;;1.40;99.90;;;;;;4995643;28;20530;-42
2022/03/01 03:45:57;;;;;;;23.58;10.85;;;1.40;99.90;;;;;;4994962;28;20057;-45
2022/03/01 03:48:23;;;;;;;20.70;10.55;;;1.30;99.90;;;;;;4993558;28;20125;-46
2022/03/01 03:50:48;;;;;;;22.05;11.80;;;1.40;99.90;;;;;;4994754;28;20105;-42
2022/03/01 03:53:14;;;;;;;23.05;11.38;;;1.30;99.90;;;;;;4994523;28;20071;-42
2022/03/01 03:55:39;;;;;;;18.40;10.73;;;1.30;99.90;;;;;;4994819;28;20023;-47
2022/03/01 03:58:05;;;;;;;21.73;11.02;;;1.30;99.90;;;;;;4994252;28;20151;-45
2022/03/01 04:00:31;;;;;;;19.48;12.00;;;1.30;99.90;;;;;;4993416;28;20032;-42
2022/03/01 04:02:57;;;;;;;23.25;12.20;;;1.30;99.90;;;;;;4994322;28;20019;-42
2022/03/01 04:05:22;;;;;;;20.35;11.50;;;1.30;99.90;;;;;;4993307;28;20080;-37
2022/03/01 04:07:48;;;;;;;23.33;11.18;;;1.20;99.90;;;;;;4993243;28;20065;-45
2022/03/01 04:10:15;;;;;;;22.73;11.93;;;1.20;99.90;;;;;;4994224;28;20506;-42
2022/03/01 04:12:40;;;;;;;24.23;12.80;;;1.20;99.90;;;;;;4993993;28;20026;-51
2022/03/01 04:15:08;;;;;;;17.92;10.52;;;1.10;99.90;;;;;;4994219;28;20490;-47
2022/03/01 04:17:34;;;;;;;24.27;12.30;;;1.00;99.90;;;;;;4994433;28;20433;-37
2022/03/01 04:20:00;;;;;;;20.58;11.30;;;0.90;99.90;;;;;;4994013;28;20379;-38
2022/03/01 04:22:26;;;;;;;18.48;11.43;;;0.80;99.90;;;;;;4994252;28;20023;-40
2022/03/01 04:24:52;;;;;;;23.35;10.73;;;0.80;99.90;;;;;;4994230;28;20026;-45
2022/03/01 04:27:18;;;;;;;21.48;11.43;;;0.80;99.90;;;;;;4994878;28;20022;-43
2022/03/01 04:29:44;;;;;;;25.85;11.88;;;0.80;99.90;;;;;;4994144;28;20034;-39
2022/03/01 04:32:10;;;;;;;20.95;11.23;;;0.80;99.90;;;;;;4993957;28;20053;-43
2022/03/01 04:34:36;;;;;;;26.65;12.35;;;0.80;99.90;;;;;;4993649;28;20031;-46
2022/03/01 04:37:02;;;;;;;18.90;11.27;;;0.80;99.90;;;;;;4994287;28;20026;-45
2022/03/01 04:39:29;;;;;;;21.23;12.23;;;0.70;99.90;;;;;;4994347;28;20053;-42
2022/03/01 04:41:54;;;;;;;21.48;11.73;;;0.70;99.90;;;;;;4993943;28;20022;-37
2022/03/01 04:44:20;;;;;;;18.60;11.20;;;0.70;99.90;;;;;;4992309;28;20023;-43
2022/03/01 04:46:46;;;;;;;21.45;10.95;;;0.60;99.90;;;;;;4993796;28;20022;-43
2022/03/01 04:49:12;;;;;;;19.58;11.50;;;0.60;99.90;;;;;;4993898;28;20195;-42
2022/03/01 04:51:37;;;;;;;22.05;11.50;;;0.60;99.90;;;;;;4992391;28;20030;-42
2022/03/01 04:54:03;;;;;;;21.25;11.45;;;0.70;99.90;;;;;;4993356;28;20030;-43
2022/03/01 04:56:28;;;;;;;24.63;12.38;;;0.70;99.90;;;;;;4993717;28;20034;-45
2022/03/01 04:58:54;;;;;;;22.63;11.57;;;0.60;99.90;;;;;;4993246;28;20022;-41
2022/03/01 05:01:20;;;;;;;23.52;11.15;;;0.70;99.90;;;;;;4993358;28;20027;-38
2022/03/01 05:03:46;;;;;;;21.98;12.25;;;0.70;99.90;;;;;;4993238;28;20096;-42
2022/03/01 05:06:11;;;;;;;23.58;13.15;;;0.70;99.90;;;;;;4993264;28;20109;-45
2022/03/01 05:08:37;;;;;;;20.83;11.25;;;0.70;99.90;;;;;;4993193;28;20049;-44
2022/03/01 05:11:02;;;;;;;21.50;12.10;;;0.60;99.90;;;;;;4993146;28;20030;-42
2022/03/01 05:13:29;;;;;;;21.52;11.45;;;0.50;99.90;;;;;;4992744;28;20041;-44
2022/03/01 05:15:55;;;;;;;20.13;11.48;;;0.60;99.90;;;;;;4993111;28;20022;-43
2022/03/01 05:18:24;;;;;;;23.17;11.55;;;0.60;99.90;;;;;;4991546;28;20034;-44
2022/03/01 05:20:49;;;;;;;19.67;11.60;;;0.60;99.90;;;;;;4992979;28;20034;-44
2022/03/01 05:23:15;;;;;;;21.63;11.93;;;0.50;99.90;;;;;;4992827;28;20045;-43
2022/03/01 05:25:41;;;;;;;24.60;12.40;;;0.50;99.90;;;;;;4992077;28;20451;-44
2022/03/01 05:28:07;;;;;;;22.67;12.25;;;0.50;99.90;;;;;;4993078;28;20062;-42
2022/03/01 05:30:33;;;;;;;21.83;12.57;;;0.50;99.90;;;;;;4993259;28;20034;-46
2022/03/01 05:32:59;;;;;;;29.63;12.95;;;0.40;99.90;;;;;;4992869;28;20027;-42
2022/03/01 05:35:27;;;;;;;24.40;12.55;;;0.40;99.90;;;;;;4993416;28;20093;-39
2022/03/01 05:37:54;;;;;;;28.08;13.18;;;;;;;;;;4992696;28;20076;-46
2022/03/01 05:40:25;;;;;;;24.00;11.02;;;0.30;99.90;;;;;;4992787;28;20166;-45
2022/03/01 05:42:52;;;;;;;24.55;12.80;;;0.30;99.90;;;;;;4992517;28;20030;-44
2022/03/01 05:45:19;;;;;;;24.58;12.52;;;0.30;99.90;;;;;;4992782;28;20023;-42
2022/03/01 05:47:46;;;;;;;21.17;11.40;;;0.40;99.90;;;;;;4992475;28;20018;-45
2022/03/01 05:50:14;;;;;;;22.42;11.93;;;0.40;99.90;;;;;;4992476;28;20022;-42
2022/03/01 05:52:40;;;;;;;29.42;12.52;;;0.30;99.90;;;;;;4992420;28;20058;-40
2022/03/01 05:55:07;;;;;;;28.55;12.23;;;0.30;99.90;;;;;;4992340;28;20100;-47
2022/03/01 05:57:33;;;;;;;23.08;12.88;;;0.20;99.90;;;;;;4992324;28;20034;-42
2022/03/01 05:59:59;;;;;;;20.10;11.63;;;0.20;99.90;;;;;;4991796;28;20453;-43
2022/03/01 06:02:25;;;;;;;23.60;12.50;;;0.30;99.90;;;;;;4992202;28;20441;-38
2022/03/01 06:04:51;;;;;;;22.45;12.90;;;0.30;99.90;;;;;;4990834;28;20363;-44
2022/03/01 06:07:16;;;;;;;19.70;11.70;;;0.30;99.90;;;;;;4993196;28;20034;-43
2022/03/01 06:09:42;;;;;;;21.30;11.20;;;0.30;99.90;;;;;;4991261;28;20034;-42
2022/03/01 06:12:08;;;;;;;23.20;12.57;;;0.20;99.90;;;;;;4992868;28;20305;-45
2022/03/01 06:14:33;;;;;;;29.67;10.65;;;0.20;99.90;;;;;;4992064;28;20076;-38
2022/03/01 06:16:59;;;;;;;27.10;11.90;;;0.20;99.90;;;;;;4992085;28;20513;-43
2022/03/01 06:19:24;;;;;;;23.00;11.18;;;0.20;99.90;;;;;;5013740;23;20061;-44
2022/03/01 06:21:52;;;;;;;23.70;12.50;;;0.10;99.90;;;;;;4992099;28;20074;-43
2022/03/01 06:24:18;;;;;;;20.42;10.82;;;0.10;99.90;;;;;;4991808;28;20046;-44
2022/03/01 06:26:43;;;;;;;26.52;10.73;;;0.10;99.90;;;;;;4992052;28;20445;-44
2022/03/01 06:29:09;;;;;;;22.77;10.93;;;0.10;99.90;;;;;;4991895;28;20022;-45
2022/03/01 06:31:35;;;;;;;26.15;13.30;;;0.10;99.90;;;;;;4992148;28;20023;-46
2022/03/01 06:34:00;;;;;;;26.92;12.57;;;0.10;99.90;;;;;;4991873;28;20398;-42
2022/03/01 06:36:26;;;;;;;21.58;11.02;;;0.20;99.90;;;;;;4993197;28;20050;-43
2022/03/01 06:38:52;;;;;;;24.33;12.18;;;0.20;99.90;;;;;;4996006;28;20030;-44
2022/03/01 06:41:18;;;;;;;26.02;12.38;;;0.30;99.90;;;;;;4996018;28;20445;-44
2022/03/01 06:43:44;;;;;;;21.05;11.43;;;0.40;99.90;;;;;;4995512;28;20054;-45
2022/03/01 06:46:09;;;;;;;22.98;13.30;;;0.60;99.90;;;;;;4995858;28;20100;-43
2022/03/01 06:48:35;;;;;;;23.15;12.10;;;0.70;99.90;;;;;;4995788;28;20034;-43
2022/03/01 06:51:01;;;;;;;21.60;11.55;;;0.90;99.90;;;;;;4995683;28;20034;-46
2022/03/01 06:53:26;;;;;;;31.52;13.35;;;0.80;99.90;;;;;;4995407;28;20105;-44
2022/03/01 06:55:52;;;;;;;21.35;12.35;;;0.90;99.90;;;;;;4994465;28;20029;-43
2022/03/01 06:58:17;;;;;;;22.17;13.05;;;0.90;99.90;;;;;;4995299;28;20022;-47
2022/03/01 07:00:44;;;;;;;27.92;13.13;;;1.10;99.90;;;;;;4995662;28;20042;-45
2022/03/01 07:03:10;;;;;;;25.42;11.80;;;1.10;99.90;;;;;;4995305;28;20447;-46
2022/03/01 07:05:36;;;;;;;25.80;13.57;;;1.20;99.90;;;;;;4995467;28;20026;-45
2022/03/01 07:08:01;;;;;;;25.30;12.77;;;1.40;99.90;;;;;;4994188;28;20515;-44
2022/03/01 07:10:27;;;;;;;22.98;11.38;;;1.50;99.90;;;;;;4993984;28;20019;-45
2022/03/01 07:12:52;;;;;;;24.77;12.20;;;2.00;99.80;;;;;;4995389;28;20030;-44
2022/03/01 07:15:18;;;;;;;26.48;12.48;;;2.40;99.00;;;;;;4995481;28;20165;-48
2022/03/01 07:17:45;;;;;;;19.48;11.27;;;2.70;98.10;;;;;;4995685;28;20406;-43
2022/03/01 07:20:12;;;;;;;18.05;11.57;;;2.80;98.20;;;;;;4995178;28;20042;-44
2022/03/01 07:22:38;;;;;;;19.85;12.27;;;3.10;97.40;;;;;;4995139;28;20029;-44
2022/03/01 07:25:04;;;;;;;22.15;11.88;;;3.20;97.10;;;;;;4995038;28;20026;-44
2022/03/01 07:27:29;;;;;;;19.45;10.55;;;3.40;96.80;;;;;;4995305;28;20105;-45
2022/03/01 07:29:56;;;;;;;19.65;11.30;;;3.70;96.20;;;;;;4995133;28;20101;-43
2022/03/01 07:32:21;;;;;;;18.27;11.95;;;3.90;96.20;;;;;;4995272;28;20042;-44
2022/03/01 07:34:47;;;;;;;29.98;12.05;;;4.30;95.10;;;;;;4994777;28;20053;-44
2022/03/01 07:37:12;;;;;;;22.60;10.70;;;5.30;92.30;;;;;;4995119;28;20031;-46
2022/03/01 07:39:38;;;;;;;20.63;11.57;;;5.20;92.40;;;;;;4993908;28;20077;-44
2022/03/01 07:42:04;;;;;;;19.05;11.02;;;5.00;91.90;;;;;;4995002;28;20022;-47
2022/03/01 07:44:30;;;;;;;24.58;12.43;;;4.20;93.70;;;;;;4993391;28;20445;-43
2022/03/01 07:46:56;;;;;;;22.00;11.50;;;3.60;94.90;;;;;;4993925;28;20045;-45
2022/03/01 07:49:22;;;;;;;19.33;12.10;;;3.10;96.40;;;;;;4994054;28;20019;-46
2022/03/01 07:51:48;;;;;;;25.13;11.48;;;2.80;96.90;;;;;;4995041;28;20030;-45
2022/03/01 07:54:13;;;;;;;23.83;12.88;;;2.50;97.70;;;;;;4994686;28;20026;-44
2022/03/01 07:56:40;;;;;;;23.52;12.60;;;2.20;97.90;;;;;;4994290;28;20089;-43
2022/03/01 07:59:06;;;;;;;16.75;10.70;;;2.10;98.40;;;;;;4994866;28;20401;-47
2022/03/01 08:01:32;;;;;;;18.77;11.02;;;1.90;98.90;;;;;;4994965;28;20030;-44
2022/03/01 08:03:57;;;;;;;19.65;11.52;;;1.90;99.10;;;;;;4994718;28;20023;-48
2022/03/01 08:06:23;;;;;;;22.00;10.57;;;2.10;99.00;;;;;;5000450;28;20037;-45
2022/03/01 08:08:48;;;;;;;24.85;11.75;;;2.00;98.80;;;;;;4994621;28;20023;-47
2022/03/01 08:11:14;;;;;;;17.83;10.43;;;2.00;98.70;;;;;;4994806;28;20525;-46
2022/03/01 08:13:40;;;;;;;23.92;13.02;;;1.90;98.80;;;;;;4994457;28;20026;-44
2022/03/01 08:16:06;;;;;;;22.38;12.35;;;2.00;99.10;;;;;;4995054;28;20026;-46
2022/03/01 08:18:31;;;;;;;18.75;11.20;;;2.00;98.90;;;;;;4998071;28;20454;-47
2022/03/01 08:21:00;;;;;;;21.25;12.15;;;2.10;98.80;;;;;;4995498;28;20036;-46
2022/03/01 08:23:26;;;;;;;19.30;11.88;;;2.10;98.50;;;;;;4993964;28;20026;-50
2022/03/01 08:25:51;;;;;;;22.08;11.43;;;2.30;98.00;;;;;;4994603;28;20043;-50
2022/03/01 08:28:17;;;;;;;19.05;10.30;;;2.30;97.10;;;;;;4997881;28;20028;-51
2022/03/01 08:30:43;;;;;;;20.75;11.85;;;2.40;97.10;;;;;;4988627;28;20475;-51
2022/03/01 08:33:16;;;;;;;22.70;12.00;;;2.40;97.00;;;;;;5003371;28;20030;-53
2022/03/01 08:35:43;;;;;;;21.17;11.43;;;2.50;96.60;;;;;;5006574;28;20099;-50
2022/03/01 08:38:09;;;;;;;22.88;10.98;;;2.50;96.80;;;;;;5003468;28;20494;-49
2022/03/01 08:40:38;;;;;;;20.60;11.07;;;2.50;97.10;;;;;;4990246;28;20038;-49
2022/03/01 08:43:05;;;;;;;16.70;10.30;;;2.60;96.70;;;;;;4993183;28;20113;-47
2022/03/01 08:45:31;;;;;;;22.63;10.95;;;2.50;96.40;;;;;;4993449;28;20046;-49
2022/03/01 08:47:56;;;;;;;20.10;11.07;;;2.60;96.80;;;;;;4992627;28;20117;-48
2022/03/01 08:50:22;;;;;;;18.58;11.10;;;2.70;96.30;;;;;;4993922;28;20086;-52
2022/03/01 08:52:49;;;;;;;25.52;10.93;;;2.70;96.30;;;;;;4994021;28;20022;-52
2022/03/01 08:55:14;;;;;;;22.27;11.82;;;2.90;96.10;;;;;;4994095;28;20054;-47
2022/03/01 08:57:40;;;;;;;22.13;11.88;;;3.00;95.90;;;;;;4994150;28;20465;-48
2022/03/01 09:00:09;;;;;;;23.83;11.50;;;3.00;95.10;;;;;;4993771;28;20037;-46
2022/03/01 09:02:35;;;;;;;18.98;10.50;;;3.10;95.40;;;;;;4994011;28;20478;-48
2022/03/01 09:05:00;;;;;;;21.20;11.30;;;3.20;95.10;;;;;;4991928;28;20041;-48
2022/03/01 09:07:27;;;;;;;19.27;10.60;;;3.20;94.90;;;;;;4994447;28;20068;-48
2022/03/01 09:09:52;;;;;;;21.05;10.65;;;3.20;94.40;;;;;;4993889;28;20018;-53
2022/03/01 09:12:18;;;;;;;22.42;11.68;;;3.30;94.80;;;;;;4992618;28;20022;-47
2022/03/01 09:14:44;;;;;;;23.42;10.13;;;3.40;93.50;;;;;;4993296;28;20474;-49
2022/03/01 09:17:10;;;;;;;18.48;10.73;;;3.50;93.50;;;;;;4993774;28;20045;-48
2022/03/01 09:19:35;;;;;;;19.17;9.93;;;3.50;93.10;;;;;;4993105;28;20038;-53
2022/03/01 09:22:02;;;;;;;17.08;9.85;;;3.50;93.00;;;;;;4993717;28;20277;-50
2022/03/01 09:24:28;;;;;;;17.38;10.90;;;3.60;93.30;;;;;;4993219;28;20019;-51
2022/03/01 09:26:53;;;;;;;18.35;10.07;;;3.90;92.70;;;;;;4993510;28;20557;-49
2022/03/01 09:29:20;;;;;;;19.27;9.70;;;4.00;91.80;;;;;;4993245;28;20022;-49
2022/03/01 09:31:45;;;;;;;17.88;10.32;;;4.30;91.60;;;;;;4993312;28;20023;-51
2022/03/01 09:34:11;;;;;;;18.95;9.98;;;5.00;90.60;;;;;;4993206;28;20042;-48
2022/03/01 09:36:36;;;;;;;16.60;10.10;;;5.80;89.20;;;;;;4993063;28;20034;-47
2022/03/01 09:39:03;;;;;;;14.35;9.50;;;6.70;80.80;;;;;;4993225;28;20043;-49
2022/03/01 09:41:31;;;;;;;17.02;9.65;;;7.50;74.10;;;;;;4993024;28;20037;-48
2022/03/01 09:43:58;;;;;;;15.10;8.93;;;8.10;72.10;;;;;;4993055;28;20517;-48
2022/03/01 09:46:24;;;;;;;15.27;9.57;;;8.10;70.40;;;;;;4992834;28;20018;-48
2022/03/01 09:48:50;;;;;;;14.00;9.75;;;8.30;68.50;;;;;;4993107;28;20030;-47
2022/03/01 09:51:16;;;;;;;20.92;10.02;;;8.50;67.50;;;;;;4993026;28;20441;-48
2022/03/01 09:53:42;;;;;;;21.35;9.85;;;8.60;66.70;;;;;;4992554;28;20061;-46
2022/03/01 09:56:08;;;;;;;18.92;9.30;;;8.50;66.60;;;;;;4992750;28;20053;-47
2022/03/01 09:58:35;;;;;;;14.20;9.60;;;8.60;65.40;;;;;;4992755;28;20085;-45
2022/03/01 10:01:01;;;;;;;13.48;9.10;;;8.40;65.40;;;;;;4992824;28;20049;-47
2022/03/01 10:03:29;;;;;;;17.33;9.52;;;8.20;65.80;;;;;;4993212;28;20037;-46
2022/03/01 10:06:10;;;;;;;20.38;9.88;;;8.60;66.60;;;;;;4992620;28;20091;-45
2022/03/01 10:08:35;;;;;;;16.25;9.70;;;8.40;64.80;;;;;;4992660;28;20023;-44
2022/03/01 10:11:01;;;;;;;14.90;8.57;;;8.50;64.60;;;;;;4992208;28;20389;-44
2022/03/01 10:13:29;;;;;;;11.63;8.82;;;8.40;65.40;;;;;;4992185;28;20151;-45
2022/03/01 10:16:05;;;;;;;15.88;9.80;;;7.80;65.50;;;;;;4990648;28;20037;-46
2022/03/01 10:18:32;;;;;;;;;;;7.60;67.20;;;;;;4991156;28;20030;-48
2022/03/01 10:21:03;;;;;;;14.95;9.07;;;7.90;67.10;;;;;;4992678;28;19957;-48
2022/03/01 10:23:29;;;;;;;14.65;8.82;;;7.90;66.30;;;;;;4990567;28;20033;-46
2022/03/01 10:25:55;;;;;;;18.70;10.48;;;7.90;66.40;;;;;;4991845;28;20019;-42
2022/03/01 10:28:35;;;;;;;16.65;9.98;;;7.50;67.70;;;;;;4991666;28;20032;-45
2022/03/01 10:31:15;;;;;;;16.15;9.90;;;7.30;69.90;;;;;;4991592;28;20137;-46
2022/03/01 10:33:54;;;;;;;15.88;9.65;;;7.20;69.90;;;;;;4982219;28;20417;-45
2022/03/01 10:36:25;;;;;;;16.65;10.30;;;7.40;70.00;;;;;;4992598;28;20030;-47
2022/03/01 10:39:13;;;;;;;16.00;9.98;;;7.60;69.00;;;;;;4992161;28;20113;-46
2022/03/01 10:41:41;;;;;;;16.98;8.90;;;7.50;68.90;;;;;;4990932;28;20502;-48
2022/03/01 10:44:18;;;;;;;19.77;10.10;;;7.60;70.20;;;;;;4992024;28;20478;-46
2022/03/01 10:46:58;;;;;;;16.02;9.85;;;7.70;69.20;;;;;;4991831;28;20031;-46
2022/03/01 10:49:29;;;;;;;17.38;10.73;;;7.80;68.30;;;;;;4980305;28;20018;-47
2022/03/01 10:51:58;;;;;;;17.60;10.30;;;7.60;68.30;;;;;;4992527;28;20052;-47
2022/03/01 10:54:29;;;;;;;17.08;9.75;;;7.40;68.40;;;;;;4992077;28;20022;-49
2022/03/01 10:56:55;;;;;;;16.80;9.88;;;7.40;68.20;;;;;;4992558;28;20074;-47
2022/03/01 10:59:26;;;;;;;18.70;10.55;;;7.30;69.40;;;;;;4991545;28;20034;-46
2022/03/01 11:01:52;;;;;;;17.83;9.73;;;7.20;69.00;;;;;;4992370;28;20030;-46
2022/03/01 11:04:18;;;;;;;17.40;9.98;;;7.10;68.30;;;;;;4991818;28;20540;-48
2022/03/01 11:06:47;;;;;;;19.13;10.02;;;7.00;69.50;;;;;;4981357;28;20081;-57
2022/03/01 11:09:13;;;;;;;20.98;10.82;;;7.00;69.90;;;;;;4987564;28;20026;-47
2022/03/01 11:11:40;;;;;;;13.43;9.13;;;7.00;68.50;;;;;;4991988;28;20073;-46
2022/03/01 11:14:07;;;;;;;18.00;9.85;;;7.00;69.30;;;;;;4991707;28;20054;-52
2022/03/01 11:16:42;;;;;;;24.65;11.73;;;7.00;67.80;;;;;;4990511;28;20084;-44
2022/03/01 11:19:38;;;;;;;38.83;21.25;;;7.00;69.10;;;;;;5011508;28;20117;-45
2022/03/01 11:22:04;;;;;;;14.15;9.70;;;7.10;67.70;;;;;;5012286;28;20045;-47
2022/03/01 11:24:30;;;;;;;16.13;9.07;;;7.20;67.50;;;;;;5014674;28;20076;-44
2022/03/01 11:27:05;;;;;;;19.08;11.18;;;7.30;67.30;;;;;;5000076;28;20030;-44
2022/03/01 11:29:40;;;;;;;15.45;9.00;;;7.30;67.70;;;;;;4995601;28;20026;-43
2022/03/01 11:32:15;;;;;;;15.82;9.13;;;7.30;67.00;;;;;;4995591;28;20465;-43
2022/03/01 11:34:41;;;;;;;13.20;8.13;;;7.20;66.70;;;;;;4995477;28;20040;-42
2022/03/01 11:37:17;;;;;;;14.75;9.55;;;7.20;65.40;;;;;;4995703;28;20050;-43
2022/03/01 11:39:43;;;;;;;16.60;9.40;;;7.20;66.70;;;;;;4995863;28;20022;-44
2022/03/01 11:42:20;;;;;;;12.00;8.25;;;7.30;65.50;;;;;;4996721;28;20069;-43
2022/03/01 11:44:50;;;;;;;14.48;9.20;;;7.40;65.80;;;;;;4995619;28;20053;-45
2022/03/01 11:47:28;;;;;;;14.10;8.95;;;7.50;65.10;;;;;;4995085;28;20027;-44
2022/03/01 11:49:55;;;;;;;12.80;9.35;;;7.40;64.70;;;;;;4995089;28;20018;-50
2022/03/01 11:52:22;;;;;;;12.52;9.15;;;7.30;64.00;;;;;;4995240;28;20049;-44
2022/03/01 11:54:50;;;;;;;19.88;8.88;;;7.20;63.70;;;;;;4994867;28;20026;-45
2022/03/01 11:57:17;;;;;;;15.43;8.55;;;7.20;64.20;;;;;;4994928;28;20023;-45
2022/03/01 11:59:44;;;;;;;16.92;8.23;;;7.10;62.90;;;;;;4994245;28;20034;-44
2022/03/01 12:02:11;;;;;;;15.35;7.82;;;7.20;62.40;;;;;;4994602;28;20093;-45
2022/03/01 12:04:50;;;;;;;12.02;8.43;;;7.10;61.30;;;;;;4995085;28;20398;-43
2022/03/01 12:07:22;;;;;;;12.43;6.95;;;7.10;62.00;;;;;;4994764;28;20022;-46
2022/03/01 12:10:03;;;;;;;14.23;7.70;;;7.10;60.10;;;;;;4994530;28;20038;-44
2022/03/01 12:12:35;;;;;;;12.48;7.65;;;7.20;59.50;;;;;;4994705;28;20092;-44
2022/03/01 12:15:02;;;;;;;11.30;7.93;;;7.10;57.70;;;;;;4994295;28;20031;-46
2022/03/01 12:17:39;;;;;;;11.35;7.03;;;7.10;59.00;;;;;;4994536;28;20030;-48
2022/03/01 12:20:10;;;;;;;12.40;7.63;;;7.10;60.20;;;;;;5014545;23;20533;-39
2022/03/01 12:22:35;;;;;;;14.13;7.00;;;7.10;59.20;;;;;;4994259;28;20038;-40
2022/03/01 12:25:01;;;;;;;10.82;6.45;;;7.10;59.40;;;;;;4991452;28;20509;-47
2022/03/01 12:27:30;;;;;;;11.70;7.32;;;7.20;58.50;;;;;;4994203;28;20026;-45
2022/03/01 12:30:01;;;;;;;11.38;6.28;;;7.20;58.50;;;;;;4993946;28;20076;-41
2022/03/01 12:32:27;;;;;;;9.82;5.43;;;7.10;55.40;;;;;;4994163;28;20478;-47
2022/03/01 12:34:58;;;;;;;17.42;6.90;;;7.10;55.00;;;;;;4993677;28;20026;-47
2022/03/01 12:37:27;;;;;;;8.05;5.68;;;7.00;55.20;;;;;;4993763;28;20038;-47
2022/03/01 12:39:54;;;;;;;17.00;7.32;;;6.90;54.10;;;;;;4955266;29;20019;-45
2022/03/01 12:42:21;;;;;;;13.43;7.07;;;7.00;56.40;;;;;;4955899;28;20499;-49